Time;durP1;ratioP1;P1;durP2;ratioP2;P2;SDS_P1;SDS_P2;PMS_P1;PMS_P2;Temp;Humidity;BMP_temperature;BMP_pressure;BME280_temperature;BME280_humidity;BME280_pressure;Samples;Min_cycle;Max_cycle;Signal;HPM_P1;HPM_P2
2023/03/22 00:01:13;;;;;;;1.75;1.10;;;12.00;99.90;;;;;;5030711;28;20068;-77
2023/03/22 00:03:41;;;;;;;1.83;0.98;;;11.90;99.90;;;;;;5030985;28;20500;-78
2023/03/22 00:06:09;;;;;;;3.53;1.10;;;11.80;99.90;;;;;;5009896;28;20084;-77
2023/03/22 00:08:36;;;;;;;1.83;0.90;;;11.80;99.90;;;;;;5011452;28;20038;-78
2023/03/22 00:11:04;;;;;;;4.72;1.27;;;11.80;99.90;;;;;;5011101;28;20026;-77
2023/03/22 00:13:32;;;;;;;1.60;0.82;;;11.70;99.90;;;;;;5011142;28;20342;-77
2023/03/22 00:16:01;;;;;;;2.30;1.08;;;11.70;99.90;;;;;;5011216;28;20112;-77
2023/03/22 00:18:28;;;;;;;2.17;1.10;;;11.60;99.90;;;;;;5010830;28;20447;-77
2023/03/22 00:20:56;;;;;;;1.38;0.98;;;11.60;99.90;;;;;;5011201;28;20018;-76
2023/03/22 00:23:23;;;;;;;2.15;1.00;;;11.60;99.90;;;;;;5011097;28;20022;-77
2023/03/22 00:25:49;;;;;;;;;;;11.50;99.90;;;;;;5011667;28;20100;-77
2023/03/22 00:28:16;;;;;;;1.60;1.00;;;11.60;99.90;;;;;;5012516;28;19945;-77
2023/03/22 00:30:54;;;;;;;3.92;1.27;;;11.50;99.90;;;;;;5014864;28;20434;-77
2023/03/22 00:33:23;;;;;;;2.10;0.95;;;11.40;99.90;;;;;;5014642;28;20049;-76
2023/03/22 00:35:52;;;;;;;1.70;1.00;;;11.40;99.90;;;;;;5014679;28;20092;-76
2023/03/22 00:38:18;;;;;;;2.03;1.13;;;11.50;99.90;;;;;;5013186;28;20061;-76
2023/03/22 00:40:46;;;;;;;2.47;1.17;;;11.40;99.90;;;;;;5014762;28;20025;-76
2023/03/22 00:43:12;;;;;;;2.03;1.10;;;11.50;99.90;;;;;;5013147;28;20114;-72
2023/03/22 00:45:40;;;;;;;2.30;1.13;;;11.40;99.90;;;;;;5014710;28;20034;-75
2023/03/22 00:48:12;;;;;;;3.40;1.40;;;11.40;99.90;;;;;;5014629;28;20125;-77
2023/03/22 00:50:40;;;;;;;3.70;1.10;;;11.50;99.90;;;;;;5014576;28;20390;-76
2023/03/22 00:53:06;;;;;;;2.03;1.10;;;11.50;99.90;;;;;;5014755;28;20034;-77
2023/03/22 00:55:34;;;;;;;3.35;1.02;;;11.60;99.90;;;;;;5014359;28;20366;-77
2023/03/22 00:58:00;;;;;;;2.05;0.85;;;11.60;99.90;;;;;;5014304;28;20030;-77
2023/03/22 01:00:26;;;;;;;3.50;1.10;;;11.60;99.90;;;;;;5014733;28;20022;-77
2023/03/22 01:02:58;;;;;;;2.38;1.10;;;11.60;99.90;;;;;;5014451;28;20408;-77
2023/03/22 01:05:27;;;;;;;2.25;1.08;;;11.60;99.90;;;;;;5020909;28;20419;-77
2023/03/22 01:07:54;;;;;;;2.80;0.93;;;11.70;99.90;;;;;;5030048;28;20056;-77
2023/03/22 01:10:20;;;;;;;;;;;11.70;99.90;;;;;;5015079;28;20471;-77
2023/03/22 01:12:47;;;;;;;2.42;1.10;;;11.70;99.90;;;;;;5014495;28;19921;-74
2023/03/22 01:15:14;;;;;;;2.40;1.10;;;11.70;99.90;;;;;;5014256;28;20033;-76
2023/03/22 01:17:40;;;;;;;3.70;0.90;;;11.70;99.90;;;;;;5014167;28;20108;-76
2023/03/22 01:20:08;;;;;;;1.80;1.00;;;11.80;99.90;;;;;;5014123;28;20453;-77
2023/03/22 01:22:35;;;;;;;1.95;1.00;;;11.80;99.90;;;;;;5014495;28;20300;-77
2023/03/22 01:25:02;;;;;;;2.85;0.80;;;11.70;99.90;;;;;;5014415;28;20028;-77
2023/03/22 01:27:29;;;;;;;1.58;0.90;;;11.70;99.90;;;;;;5014324;28;20104;-77
2023/03/22 01:29:55;;;;;;;2.60;0.98;;;11.70;99.90;;;;;;5014177;28;20068;-76
2023/03/22 01:32:21;;;;;;;3.03;1.05;;;11.60;99.90;;;;;;5012159;28;20124;-77
2023/03/22 01:34:47;;;;;;;2.50;1.10;;;11.60;99.90;;;;;;5013734;28;20423;-76
2023/03/22 01:37:13;;;;;;;1.93;1.07;;;11.60;99.90;;;;;;5013880;28;20026;-76
2023/03/22 01:39:41;;;;;;;2.22;1.10;;;11.60;99.90;;;;;;5012090;28;20054;-76
2023/03/22 01:42:15;;;;;;;4.10;1.30;;;11.60;99.90;;;;;;5013613;28;20032;-77
2023/03/22 01:45:04;;;;;;;2.38;1.20;;;11.60;99.90;;;;;;5013713;28;20030;-76
2023/03/22 01:47:32;;;;;;;3.50;1.20;;;11.60;99.90;;;;;;5013729;28;20033;-77
2023/03/22 01:49:58;;;;;;;1.80;0.90;;;11.50;99.90;;;;;;5013273;28;20018;-76
2023/03/22 01:52:25;;;;;;;2.60;1.05;;;11.60;99.90;;;;;;5013837;28;20328;-76
2023/03/22 01:54:54;;;;;;;;;;;11.60;99.90;;;;;;5014152;28;20033;-76
2023/03/22 01:57:21;;;;;;;2.88;1.02;;;11.50;99.90;;;;;;5013553;28;20200;-79
2023/03/22 01:59:49;;;;;;;3.10;1.20;;;11.40;99.90;;;;;;5013875;28;20029;-78
2023/03/22 02:02:17;;;;;;;;;;;11.40;99.90;;;;;;5014077;28;20025;-76
2023/03/22 02:04:49;;;;;;;3.05;1.10;;;11.30;99.90;;;;;;5014694;28;19951;-79
2023/03/22 02:07:24;;;;;;;2.67;1.05;;;11.30;99.90;;;;;;5033616;28;20026;-78
2023/03/22 02:09:55;;;;;;;2.28;1.02;;;11.30;99.90;;;;;;5033230;28;20029;-76
2023/03/22 02:12:31;;;;;;;3.95;1.45;;;11.40;99.90;;;;;;5032843;28;20040;-76
2023/03/22 02:15:11;;;;;;;4.07;1.17;;;11.40;99.90;;;;;;5033154;28;20175;-76
2023/03/22 02:17:58;;;;;;;2.38;1.10;;;11.40;99.90;;;;;;5032719;28;20121;-76
2023/03/22 02:21:09;;;;;;;2.90;1.25;;;11.30;99.90;;;;;;5032496;28;20033;-76
2023/03/22 02:24:03;;;;;;;4.07;1.10;;;11.30;99.90;;;;;;5032846;28;20391;-76
2023/03/22 02:26:53;;;;;;;2.50;1.30;;;11.40;99.90;;;;;;5033308;28;20102;-76
2023/03/22 02:29:32;;;;;;;2.67;1.08;;;11.40;99.90;;;;;;5032815;28;20040;-76
2023/03/22 02:32:01;;;;;;;3.53;1.20;;;11.30;99.90;;;;;;5014566;28;20041;-76
2023/03/22 02:34:55;;;;;;;7.30;1.25;;;11.30;99.90;;;;;;5032317;28;20025;-76
2023/03/22 02:37:40;;;;;;;2.25;1.10;;;11.30;99.90;;;;;;5032607;28;20025;-76
2023/03/22 02:40:43;;;;;;;3.17;1.20;;;11.20;99.90;;;;;;5032207;28;20103;-76
2023/03/22 02:43:37;;;;;;;2.47;1.10;;;11.20;99.90;;;;;;5014309;28;20045;-76
2023/03/22 02:46:06;;;;;;;2.60;1.20;;;11.20;99.90;;;;;;5009596;28;20148;-76
2023/03/22 02:48:49;;;;;;;2.10;1.20;;;11.30;99.90;;;;;;5032173;28;20045;-76
2023/03/22 02:51:36;;;;;;;3.95;1.10;;;11.30;99.90;;;;;;5031871;28;20056;-76
2023/03/22 02:54:28;;;;;;;4.22;1.30;;;11.30;99.90;;;;;;5032158;28;20033;-77
2023/03/22 02:57:33;;;;;;;4.07;1.10;;;11.30;99.90;;;;;;5032616;28;20060;-76
2023/03/22 03:00:00;;;;;;;3.95;1.40;;;11.40;99.90;;;;;;4952234;29;20046;-76
2023/03/22 03:02:29;;;;;;;3.05;1.10;;;11.40;99.90;;;;;;4951421;28;20221;-72
2023/03/22 03:04:59;;;;;;;2.40;1.20;;;11.40;99.90;;;;;;4959897;28;20050;-76
2023/03/22 03:07:28;;;;;;;2.92;1.08;;;11.40;99.90;;;;;;4944809;28;20550;-71
2023/03/22 03:09:58;;;;;;;3.65;1.42;;;11.30;99.90;;;;;;4960086;28;20035;-71
2023/03/22 03:12:29;;;;;;;2.78;1.20;;;11.30;99.90;;;;;;4959096;28;20183;-76
2023/03/22 03:14:57;;;;;;;4.07;1.17;;;11.30;99.90;;;;;;4957633;28;20404;-76
2023/03/22 03:17:47;;;;;;;3.10;1.20;;;11.30;99.90;;;;;;4957862;28;20172;-76
2023/03/22 03:20:31;;;;;;;3.78;1.30;;;11.30;99.90;;;;;;4959773;28;20038;-76
2023/03/22 03:23:04;;;;;;;2.72;1.17;;;11.30;99.90;;;;;;4958655;28;20124;-76
2023/03/22 03:26:00;;;;;;;4.13;1.20;;;11.30;99.90;;;;;;4967838;28;20034;-76
2023/03/22 03:28:45;;;;;;;1.80;1.10;;;11.30;99.90;;;;;;4969776;28;20476;-76
2023/03/22 03:31:26;;;;;;;2.28;1.10;;;11.30;99.90;;;;;;4970323;28;20416;-77
2023/03/22 03:33:59;;;;;;;3.70;1.23;;;11.40;99.90;;;;;;4970466;28;20179;-76
2023/03/22 03:36:29;;;;;;;2.55;1.27;;;11.40;99.90;;;;;;5018078;28;20049;-77
2023/03/22 03:38:59;;;;;;;1.88;1.10;;;11.30;99.90;;;;;;5037670;28;20423;-76
2023/03/22 03:41:29;;;;;;;2.15;1.10;;;11.30;99.90;;;;;;5030932;28;20066;-75
2023/03/22 03:43:57;;;;;;;3.03;1.10;;;11.30;99.90;;;;;;5031383;28;20450;-76
2023/03/22 03:46:24;;;;;;;4.45;1.17;;;11.20;99.90;;;;;;5031165;28;20079;-76
2023/03/22 03:48:51;;;;;;;2.75;1.23;;;11.20;99.90;;;;;;5030834;28;20036;-76
2023/03/22 03:51:18;;;;;;;2.17;1.10;;;11.20;99.90;;;;;;4996737;28;20105;-76
2023/03/22 03:53:44;;;;;;;;;;;11.20;99.90;;;;;;5031425;28;20030;-76
2023/03/22 03:56:11;;;;;;;5.40;1.30;;;11.20;99.90;;;;;;5030858;28;19916;-76
2023/03/22 03:58:38;;;;;;;2.50;1.20;;;11.30;99.90;;;;;;5031217;28;20018;-76
2023/03/22 04:01:04;;;;;;;;;;;11.30;99.90;;;;;;5031409;28;20284;-78
2023/03/22 04:03:30;;;;;;;1.90;1.10;;;11.30;99.90;;;;;;5032915;28;19909;-77
2023/03/22 04:05:58;;;;;;;2.30;1.15;;;11.30;99.90;;;;;;5017524;28;20458;-77
2023/03/22 04:08:25;;;;;;;6.68;1.50;;;11.40;99.90;;;;;;5035627;28;20104;-77
2023/03/22 04:10:52;;;;;;;2.88;1.30;;;11.40;99.90;;;;;;5035659;28;20026;-76
2023/03/22 04:13:23;;;;;;;3.22;1.15;;;11.40;99.90;;;;;;5001461;28;20042;-76
2023/03/22 04:15:54;;;;;;;2.72;1.15;;;11.40;99.90;;;;;;5035928;28;20017;-76
2023/03/22 04:18:20;;;;;;;2.78;1.48;;;11.40;99.90;;;;;;5035674;28;20499;-75
2023/03/22 04:20:48;;;;;;;5.03;1.50;;;11.40;99.90;;;;;;5035179;28;20477;-77
2023/03/22 04:23:17;;;;;;;2.42;1.40;;;11.40;99.90;;;;;;5035767;28;20025;-76
2023/03/22 04:25:49;;;;;;;2.83;1.33;;;11.40;99.90;;;;;;5035686;28;20068;-76
2023/03/22 04:28:16;;;;;;;4.03;1.17;;;11.40;99.90;;;;;;5034791;28;20037;-77
2023/03/22 04:30:44;;;;;;;2.85;1.33;;;11.40;99.90;;;;;;5036088;28;20017;-77
2023/03/22 04:33:12;;;;;;;3.88;1.17;;;11.40;99.90;;;;;;5035459;28;20131;-77
2023/03/22 04:35:38;;;;;;;3.33;1.30;;;11.40;99.90;;;;;;5035439;28;20118;-77
2023/03/22 04:38:04;;;;;;;2.75;1.30;;;11.40;99.90;;;;;;5035523;28;20087;-73
2023/03/22 04:40:35;;;;;;;2.20;1.13;;;11.40;99.90;;;;;;5035768;28;20036;-76
2023/03/22 04:43:02;;;;;;;3.78;1.23;;;11.50;99.90;;;;;;5018920;28;20028;-76
2023/03/22 04:45:31;;;;;;;4.38;1.30;;;11.40;99.90;;;;;;5017658;28;20484;-76
2023/03/22 04:47:58;;;;;;;4.07;1.40;;;11.40;99.90;;;;;;5035815;28;20044;-77
2023/03/22 04:50:27;;;;;;;3.90;1.50;;;11.40;99.90;;;;;;5034508;28;20029;-77
2023/03/22 04:52:54;;;;;;;3.70;1.30;;;11.30;99.90;;;;;;5035229;28;20037;-76
2023/03/22 04:55:21;;;;;;;4.72;1.40;;;11.30;99.90;;;;;;5035163;28;20045;-77
2023/03/22 04:57:49;;;;;;;4.72;1.40;;;11.20;99.90;;;;;;5017048;28;20494;-77
2023/03/22 05:00:17;;;;;;;2.78;1.50;;;11.20;99.90;;;;;;5035476;28;20148;-77
2023/03/22 05:02:47;;;;;;;4.50;1.60;;;11.20;99.90;;;;;;5017101;28;20034;-77
2023/03/22 05:05:13;;;;;;;4.03;1.50;;;11.30;99.90;;;;;;5034690;28;20042;-71
2023/03/22 05:07:39;;;;;;;4.93;1.60;;;11.30;99.90;;;;;;5035367;28;20412;-73
2023/03/22 05:10:06;;;;;;;5.33;1.50;;;11.30;99.90;;;;;;5034892;28;20162;-72
2023/03/22 05:12:32;;;;;;;3.05;1.40;;;11.40;99.90;;;;;;5037569;28;20457;-68
2023/03/22 05:14:59;;;;;;;2.80;1.47;;;11.30;99.90;;;;;;5054596;28;20025;-73
2023/03/22 05:17:26;;;;;;;3.40;1.40;;;11.40;99.90;;;;;;5037337;28;20025;-72
2023/03/22 05:19:52;;;;;;;3.58;1.50;;;11.40;99.90;;;;;;5055370;28;20074;-72
2023/03/22 05:22:21;;;;;;;4.82;1.60;;;11.40;99.90;;;;;;5055301;28;20507;-71
2023/03/22 05:24:48;;;;;;;6.13;1.70;;;11.40;99.90;;;;;;5055403;28;20480;-72
2023/03/22 05:27:16;;;;;;;2.58;1.55;;;11.50;99.90;;;;;;5055038;28;20021;-72
2023/03/22 05:29:43;;;;;;;3.70;1.42;;;11.50;99.90;;;;;;5037104;28;20032;-73
2023/03/22 05:32:11;;;;;;;7.55;1.90;;;11.50;99.90;;;;;;5054884;28;20481;-72
2023/03/22 05:34:37;;;;;;;8.90;2.28;;;11.50;99.90;;;;;;5054778;28;20055;-72
2023/03/22 05:37:03;;;;;;;3.47;1.80;;;11.60;99.90;;;;;;5037713;28;20409;-72
2023/03/22 05:39:30;;;;;;;6.27;1.90;;;11.60;99.90;;;;;;5037458;28;20121;-72
2023/03/22 05:41:56;;;;;;;3.30;1.60;;;11.70;99.90;;;;;;5034873;28;20033;-72
2023/03/22 05:44:22;;;;;;;6.20;1.63;;;11.80;99.90;;;;;;5035228;28;20018;-72
2023/03/22 05:46:48;;;;;;;6.03;1.67;;;11.80;99.90;;;;;;5035145;28;20036;-75
2023/03/22 05:49:14;;;;;;;4.13;1.50;;;11.80;99.90;;;;;;5016767;28;20029;-74
2023/03/22 05:51:41;;;;;;;4.13;1.70;;;11.70;99.90;;;;;;5034721;28;20422;-73
2023/03/22 05:54:09;;;;;;;3.28;1.65;;;11.80;99.90;;;;;;5034932;28;20096;-73
2023/03/22 05:56:35;;;;;;;3.45;1.60;;;12.00;99.90;;;;;;5034727;28;20032;-74
2023/03/22 05:59:03;;;;;;;7.03;1.48;;;12.10;99.90;;;;;;5034859;28;20492;-74
2023/03/22 06:01:29;;;;;;;3.72;1.45;;;12.40;99.90;;;;;;5000546;28;20041;-73
2023/03/22 06:03:55;;;;;;;3.60;1.50;;;13.40;99.90;;;;;;5034367;28;20355;-74
2023/03/22 06:06:22;;;;;;;3.47;1.50;;;13.90;99.90;;;;;;5033781;28;20111;-73
2023/03/22 06:08:49;;;;;;;;;;;14.30;99.90;;;;;;5034262;28;20256;-74
2023/03/22 06:11:17;;;;;;;2.92;1.27;;;15.50;99.90;;;;;;5033620;28;20322;-73
2023/03/22 06:13:43;;;;;;;3.78;1.20;;;15.70;99.90;;;;;;5033557;28;20496;-74
2023/03/22 06:16:09;;;;;;;4.23;1.17;;;16.80;99.90;;;;;;5034583;28;20108;-73
2023/03/22 06:18:35;;;;;;;5.93;1.25;;;18.10;99.90;;;;;;5034500;28;20068;-74
2023/03/22 06:21:03;;;;;;;;;;;18.60;99.90;;;;;;5034736;28;20036;-74
2023/03/22 06:23:32;;;;;;;4.35;1.42;;;19.20;99.90;;;;;;5035085;28;19916;-72
2023/03/22 06:25:59;;;;;;;2.88;1.10;;;19.10;99.90;;;;;;5015966;28;20028;-69
2023/03/22 06:28:28;;;;;;;3.25;1.10;;;19.30;99.90;;;;;;5016659;28;20393;-73
2023/03/22 06:30:55;;;;;;;7.53;1.33;;;18.70;99.90;;;;;;5033951;28;20021;-73
2023/03/22 06:33:21;;;;;;;;;;;18.80;99.90;;;;;;5034941;28;20449;-73
2023/03/22 06:35:47;;;;;;;4.18;1.30;;;18.70;99.90;;;;;;5016008;28;19905;-74
2023/03/22 06:38:13;;;;;;;4.10;1.45;;;19.00;99.90;;;;;;5016026;28;20021;-73
2023/03/22 06:40:39;;;;;;;4.45;1.30;;;18.70;99.90;;;;;;5034061;28;20128;-72
2023/03/22 06:43:05;;;;;;;4.07;1.42;;;18.90;99.90;;;;;;5033731;28;20032;-75
2023/03/22 06:45:32;;;;;;;6.32;1.50;;;19.20;99.90;;;;;;5033137;28;20105;-68
2023/03/22 06:47:59;;;;;;;3.65;1.30;;;19.40;99.90;;;;;;5033049;28;20424;-73
2023/03/22 06:50:27;;;;;;;;;;;19.80;99.90;;;;;;5015063;28;20453;-75
2023/03/22 06:52:54;;;;;;;4.88;1.30;;;20.00;99.90;;;;;;5014664;28;19933;-75
2023/03/22 06:55:21;;;;;;;2.78;1.35;;;18.60;99.90;;;;;;5032797;28;20466;-74
2023/03/22 06:57:48;;;;;;;8.00;1.63;;;18.30;99.90;;;;;;5033189;28;20034;-77
2023/03/22 07:00:19;;;;;;;5.68;1.40;;;18.30;99.90;;;;;;5032518;28;20071;-78
2023/03/22 07:02:46;;;;;;;5.70;1.30;;;18.50;99.90;;;;;;5032888;28;20100;-79
2023/03/22 07:05:13;;;;;;;4.53;1.50;;;18.40;99.90;;;;;;5032508;28;20045;-78
2023/03/22 07:07:44;;;;;;;8.40;2.00;;;18.30;99.90;;;;;;4998668;28;20409;-78
2023/03/22 07:10:11;;;;;;;5.05;1.60;;;18.50;99.90;;;;;;5014993;28;20382;-80
2023/03/22 07:12:40;;;;;;;4.13;1.70;;;18.50;99.90;;;;;;5032786;28;20057;-80
2023/03/22 07:15:10;;;;;;;5.30;1.67;;;18.20;99.90;;;;;;5033526;28;20145;-78
2023/03/22 07:17:38;;;;;;;2.95;1.40;;;17.70;99.90;;;;;;5032698;28;20120;-79
2023/03/22 07:20:05;;;;;;;4.50;1.50;;;17.20;99.90;;;;;;5033407;28;20115;-79
2023/03/22 07:22:33;;;;;;;6.25;1.58;;;17.40;99.90;;;;;;5032481;28;20181;-78
2023/03/22 07:24:59;;;;;;;;;;;17.70;99.90;;;;;;5032755;28;20108;-77
2023/03/22 07:27:25;;;;;;;2.75;1.27;;;17.30;99.90;;;;;;5032231;28;19943;-72
2023/03/22 07:29:53;;;;;;;7.53;2.05;;;16.80;99.90;;;;;;5014237;28;20052;-77
2023/03/22 07:32:20;;;;;;;3.30;1.50;;;16.80;99.90;;;;;;5032298;28;20064;-77
2023/03/22 07:34:46;;;;;;;4.03;1.60;;;17.20;99.90;;;;;;5032484;28;20527;-78
2023/03/22 07:37:12;;;;;;;7.05;1.60;;;17.20;99.90;;;;;;5032630;28;20516;-78
2023/03/22 07:39:39;;;;;;;4.78;1.25;;;17.50;99.90;;;;;;5032125;28;20096;-79
2023/03/22 07:42:06;;;;;;;2.95;1.20;;;17.40;99.90;;;;;;5014891;28;20422;-79
2023/03/22 07:44:33;;;;;;;4.10;1.10;;;17.80;99.90;;;;;;5031062;28;20034;-75
2023/03/22 07:46:59;;;;;;;4.90;1.23;;;17.30;99.90;;;;;;5032534;28;20378;-78
2023/03/22 07:49:26;;;;;;;2.58;1.23;;;17.40;99.90;;;;;;5031904;28;20032;-76
2023/03/22 07:51:54;;;;;;;3.70;1.10;;;17.50;99.90;;;;;;5031702;28;20037;-77
2023/03/22 07:54:21;;;;;;;6.22;1.40;;;17.70;99.90;;;;;;5031840;28;20541;-77
2023/03/22 07:56:48;;;;;;;7.90;1.60;;;18.00;99.90;;;;;;5032061;28;20032;-75
2023/03/22 07:59:18;;;;;;;3.85;1.40;;;18.10;99.90;;;;;;5032324;28;20418;-75
2023/03/22 08:01:45;;;;;;;3.83;1.40;;;17.30;99.90;;;;;;4997509;28;20030;-76
2023/03/22 08:04:11;;;;;;;7.95;1.35;;;16.70;99.90;;;;;;5013756;28;20120;-77
2023/03/22 08:06:39;;;;;;;3.10;1.40;;;16.60;99.90;;;;;;5010583;28;20069;-77
2023/03/22 08:09:08;;;;;;;4.28;1.20;;;16.80;99.90;;;;;;5028222;22;20061;-76
2023/03/22 08:11:35;;;;;;;5.75;1.35;;;17.00;99.90;;;;;;5051321;28;20081;-76
2023/03/22 08:14:03;;;;;;;3.55;1.27;;;17.40;99.90;;;;;;5051637;28;20079;-77
2023/03/22 08:16:29;;;;;;;3.67;1.23;;;17.50;99.90;;;;;;5051673;28;20090;-76
2023/03/22 08:18:55;;;;;;;6.90;1.48;;;17.40;99.90;;;;;;5051686;28;20115;-77
2023/03/22 08:21:23;;;;;;;3.55;1.40;;;17.30;99.90;;;;;;5051433;28;20025;-75
2023/03/22 08:23:49;;;;;;;4.13;1.60;;;17.90;99.90;;;;;;5051393;28;20040;-76
2023/03/22 08:26:17;;;;;;;3.13;1.15;;;18.20;99.90;;;;;;5033292;28;20119;-76
2023/03/22 08:28:43;;;;;;;2.22;1.30;;;17.70;99.90;;;;;;5033074;28;20037;-79
2023/03/22 08:31:12;;;;;;;4.18;1.33;;;18.30;99.90;;;;;;5033733;28;20021;-79
2023/03/22 08:33:39;;;;;;;4.35;1.30;;;19.10;99.90;;;;;;5051536;28;20037;-79
2023/03/22 08:36:08;;;;;;;3.40;1.30;;;19.20;99.90;;;;;;5051479;28;20418;-78
2023/03/22 08:38:34;;;;;;;3.25;1.00;;;19.30;99.90;;;;;;5051489;28;20033;-79
2023/03/22 08:41:00;;;;;;;2.50;1.17;;;19.50;99.90;;;;;;5051547;28;20493;-78
2023/03/22 08:43:26;;;;;;;10.05;1.55;;;19.70;99.90;;;;;;5051481;28;20048;-78
2023/03/22 08:45:52;;;;;;;2.22;1.30;;;19.50;99.90;;;;;;5051521;28;20017;-78
2023/03/22 08:48:19;;;;;;;2.50;1.02;;;18.60;99.90;;;;;;5051523;28;20036;-78
2023/03/22 08:50:48;;;;;;;4.40;1.60;;;17.90;99.90;;;;;;5055097;28;20025;-79
2023/03/22 08:53:14;;;;;;;6.72;1.90;;;17.40;99.90;;;;;;5054884;28;20072;-78
2023/03/22 08:55:43;;;;;;;3.13;1.52;;;18.20;99.90;;;;;;5055237;28;20096;-77
2023/03/22 08:58:13;;;;;;;3.10;1.40;;;18.20;99.90;;;;;;5055109;28;20040;-77
2023/03/22 09:00:42;;;;;;;3.22;1.30;;;17.80;99.90;;;;;;5037602;28;20021;-77
2023/03/22 09:03:08;;;;;;;5.32;1.45;;;17.90;99.90;;;;;;5055499;28;20021;-78
2023/03/22 09:05:36;;;;;;;3.50;1.42;;;18.20;99.90;;;;;;5036581;28;20064;-76
2023/03/22 09:08:04;;;;;;;3.95;1.80;;;17.90;99.90;;;;;;5055027;28;20033;-78
2023/03/22 09:10:33;;;;;;;4.72;2.20;;;18.20;99.90;;;;;;5053284;28;20087;-77
2023/03/22 09:13:12;;;;;;;3.22;1.80;;;18.60;99.90;;;;;;5036587;28;20033;-77
2023/03/22 09:15:38;;;;;;;5.82;2.35;;;18.10;99.90;;;;;;5007154;28;20056;-78
2023/03/22 09:18:05;;;;;;;3.10;1.77;;;18.40;99.90;;;;;;5054525;28;20101;-78
2023/03/22 09:20:40;;;;;;;6.13;1.42;;;18.10;99.90;;;;;;5054122;28;20039;-77
2023/03/22 09:23:06;;;;;;;4.45;1.55;;;17.70;99.90;;;;;;5055058;28;20338;-77
2023/03/22 09:25:34;;;;;;;4.80;1.67;;;17.20;99.90;;;;;;5055193;28;20442;-79
2023/03/22 09:28:02;;;;;;;3.70;1.60;;;17.50;99.90;;;;;;5054763;28;20412;-78
2023/03/22 09:30:36;;;;;;;3.63;1.70;;;17.70;99.90;;;;;;5054270;28;20021;-76
2023/03/22 09:33:03;;;;;;;2.88;1.40;;;18.00;99.90;;;;;;5035993;28;20091;-78
2023/03/22 09:35:30;;;;;;;2.78;1.33;;;17.70;99.90;;;;;;5036246;28;20033;-78
2023/03/22 09:37:57;;;;;;;4.07;1.20;;;17.80;99.90;;;;;;5054185;28;20075;-77
2023/03/22 09:40:28;;;;;;;;;;;17.70;99.90;;;;;;5054603;28;20085;-76
2023/03/22 09:42:58;;;;;;;2.65;1.20;;;18.00;99.90;;;;;;5054212;28;20405;-77
2023/03/22 09:45:36;;;;;;;2.28;1.38;;;17.50;99.90;;;;;;5054286;28;20025;-77
2023/03/22 09:48:13;;;;;;;5.03;2.28;;;17.30;99.90;;;;;;5053379;28;20424;-78
2023/03/22 09:50:49;;;;;;;3.80;1.70;;;17.30;99.90;;;;;;5053484;28;20054;-77
2023/03/22 09:53:17;;;;;;;4.78;1.58;;;17.00;99.90;;;;;;5053986;28;20083;-76
2023/03/22 09:55:56;;;;;;;3.53;1.70;;;17.60;99.90;;;;;;5053626;28;20036;-77
2023/03/22 09:58:51;;;;;;;3.88;1.70;;;18.20;99.90;;;;;;5054261;28;20032;-79
2023/03/22 10:01:44;;;;;;;2.47;1.40;;;18.60;99.90;;;;;;4971855;28;20050;-76
2023/03/22 10:04:34;;;;;;;3.97;1.50;;;17.60;99.90;;;;;;4973021;28;20042;-76
2023/03/22 10:07:09;;;;;;;2.67;1.40;;;17.50;99.90;;;;;;4956229;28;20031;-77
2023/03/22 10:09:47;;;;;;;3.08;1.50;;;17.90;99.90;;;;;;4972134;28;20057;-79
2023/03/22 10:12:23;;;;;;;5.30;1.50;;;18.50;99.90;;;;;;4972739;28;20122;-77
2023/03/22 10:15:00;;;;;;;2.90;1.38;;;18.60;99.90;;;;;;4972721;28;20117;-75
2023/03/22 10:17:27;;;;;;;;;;;18.20;99.90;;;;;;4958460;28;20038;-76
2023/03/22 10:20:21;;;;;;;3.33;1.52;;;18.30;99.90;;;;;;4972244;28;19913;-77
2023/03/22 10:22:54;;;;;;;3.13;1.50;;;18.90;99.90;;;;;;4972550;28;20349;-76
2023/03/22 10:25:29;;;;;;;2.63;1.50;;;19.00;99.90;;;;;;4972255;28;20134;-78
2023/03/22 10:27:56;;;;;;;2.47;1.40;;;19.20;99.90;;;;;;4957596;28;20487;-76
2023/03/22 10:30:26;;;;;;;3.55;1.60;;;19.10;99.90;;;;;;4972158;28;20098;-73
2023/03/22 10:33:01;;;;;;;4.28;1.60;;;18.00;99.90;;;;;;4972152;28;20047;-75
2023/03/22 10:35:29;;;;;;;3.30;1.63;;;17.40;99.90;;;;;;4972330;28;20027;-77
2023/03/22 10:38:01;;;;;;;4.18;1.90;;;17.60;99.90;;;;;;4996007;28;20112;-73
2023/03/22 10:40:34;;;;;;;4.45;2.17;;;18.10;99.90;;;;;;5031654;28;20033;-75
2023/03/22 10:43:32;;;;;;;5.50;2.30;;;18.80;99.90;;;;;;5031571;28;20409;-75
2023/03/22 10:46:03;;;;;;;5.93;2.80;;;19.40;99.90;;;;;;5033039;28;20116;-77
2023/03/22 10:48:35;;;;;;;8.00;1.65;;;19.40;99.90;;;;;;5033099;28;20116;-78
2023/03/22 10:51:03;;;;;;;3.35;1.50;;;19.60;99.90;;;;;;5032836;28;20026;-76
2023/03/22 10:53:44;;;;;;;3.28;1.60;;;19.60;99.90;;;;;;5032402;28;20112;-76
2023/03/22 10:56:17;;;;;;;5.50;2.05;;;19.70;99.90;;;;;;5032581;28;20466;-76
2023/03/22 10:58:44;;;;;;;9.82;2.40;;;19.00;99.90;;;;;;5032578;28;20470;-77
2023/03/22 11:01:13;;;;;;;7.72;2.60;;;19.00;99.90;;;;;;5032003;28;20036;-77
2023/03/22 11:03:48;;;;;;;7.82;2.40;;;19.10;99.90;;;;;;5032396;28;20045;-74
2023/03/22 11:06:21;;;;;;;6.57;2.20;;;19.20;99.90;;;;;;5032257;28;20056;-79
2023/03/22 11:08:54;;;;;;;5.25;2.20;;;19.50;99.90;;;;;;5032545;28;20017;-77
2023/03/22 11:11:39;;;;;;;5.88;2.28;;;19.50;99.90;;;;;;5050695;28;20473;-75
2023/03/22 11:14:14;;;;;;;11.50;2.63;;;19.60;99.90;;;;;;5051547;28;20134;-78
2023/03/22 11:16:48;;;;;;;7.60;3.10;;;19.90;99.90;;;;;;5051977;28;20021;-77
2023/03/22 11:19:26;;;;;;;14.20;6.70;;;20.00;99.90;;;;;;5052437;28;20028;-77
2023/03/22 11:21:54;;;;;;;10.07;6.93;;;20.20;99.90;;;;;;5052175;28;20112;-76
2023/03/22 11:24:23;;;;;;;6.93;2.80;;;20.40;99.90;;;;;;5051448;28;20025;-79
2023/03/22 11:27:20;;;;;;;7.13;2.95;;;20.20;99.90;;;;;;5052326;28;20025;-77
2023/03/22 11:29:50;;;;;;;5.68;1.95;;;20.20;99.90;;;;;;5054156;28;20024;-77
2023/03/22 11:32:37;;;;;;;5.88;2.00;;;19.80;99.90;;;;;;5051836;28;20032;-77
2023/03/22 11:35:15;;;;;;;5.88;1.95;;;19.70;99.90;;;;;;5051710;28;20028;-74
2023/03/22 11:37:47;;;;;;;5.18;2.00;;;19.70;99.90;;;;;;5051796;28;20116;-75
2023/03/22 11:40:18;;;;;;;9.05;2.60;;;19.90;99.90;;;;;;5033436;28;20025;-76
2023/03/22 11:42:46;;;;;;;4.28;1.83;;;20.20;99.90;;;;;;5052144;28;20018;-76
2023/03/22 11:45:26;;;;;;;4.18;1.75;;;20.40;99.90;;;;;;5051819;28;20321;-76
2023/03/22 11:47:53;;;;;;;5.07;2.10;;;20.20;99.90;;;;;;5048679;28;20037;-78
2023/03/22 11:50:31;;;;;;;39.83;3.65;;;19.80;99.90;;;;;;5051086;28;20104;-77
2023/03/22 11:53:02;;;;;;;8.15;3.45;;;19.90;99.90;;;;;;5032810;28;20064;-75
2023/03/22 11:55:33;;;;;;;7.57;1.88;;;19.80;99.90;;;;;;5051243;28;20350;-75
2023/03/22 11:58:03;;;;;;;4.40;2.03;;;20.00;99.90;;;;;;5051872;28;20483;-75
2023/03/22 12:00:36;;;;;;;8.52;2.78;;;20.00;99.90;;;;;;5051167;28;20472;-74
2023/03/22 12:03:09;;;;;;;5.78;2.38;;;20.00;99.90;;;;;;5033702;28;20513;-76
2023/03/22 12:05:41;;;;;;;5.03;2.22;;;20.10;99.90;;;;;;5032673;28;20338;-76
2023/03/22 12:08:31;;;;;;;5.10;2.20;;;20.00;99.90;;;;;;5050870;28;20429;-75
2023/03/22 12:11:35;;;;;;;8.35;2.03;;;20.10;99.90;;;;;;5029955;28;20057;-76
2023/03/22 12:14:24;;;;;;;7.78;1.88;;;20.30;99.90;;;;;;5030234;28;20067;-74
2023/03/22 12:17:17;;;;;;;6.85;1.95;;;20.10;99.90;;;;;;4989929;28;20077;-79
2023/03/22 12:20:07;;;;;;;5.38;1.90;;;20.40;99.90;;;;;;4990090;28;20121;-76
2023/03/22 12:22:50;;;;;;;6.22;2.38;;;19.90;99.90;;;;;;4990704;28;20045;-75
2023/03/22 12:25:29;;;;;;;7.00;1.90;;;20.30;99.90;;;;;;4993403;28;20049;-76
2023/03/22 12:28:05;;;;;;;4.15;1.80;;;20.20;99.90;;;;;;4993953;28;20065;-77
2023/03/22 12:30:41;;;;;;;6.80;1.67;;;20.50;99.90;;;;;;4994163;28;20034;-76
2023/03/22 12:33:27;;;;;;;3.65;1.77;;;20.70;99.90;;;;;;4994592;28;20112;-77
2023/03/22 12:36:02;;;;;;;6.25;1.55;;;20.60;99.90;;;;;;4994066;28;20026;-77
2023/03/22 12:38:56;;;;;;;7.38;2.45;;;20.50;99.90;;;;;;4994299;28;20034;-75
2023/03/22 12:41:35;;;;;;;4.07;1.45;;;20.70;99.90;;;;;;4976459;28;20034;-77
2023/03/22 12:44:25;;;;;;;3.67;1.27;;;20.90;99.90;;;;;;4977771;28;20030;-76
2023/03/22 12:47:05;;;;;;;3.72;1.10;;;21.10;99.90;;;;;;4994234;28;20042;-77
2023/03/22 12:49:51;;;;;;;3.42;1.80;;;20.80;99.90;;;;;;4993765;28;20436;-76
2023/03/22 12:52:24;;;;;;;3.33;1.67;;;21.20;99.90;;;;;;4995891;28;20043;-75
2023/03/22 12:54:52;;;;;;;6.05;1.67;;;21.10;99.90;;;;;;5013721;28;20037;-76
2023/03/22 12:57:18;;;;;;;;;;;21.30;99.90;;;;;;5016097;28;20459;-78
2023/03/22 12:59:54;;;;;;;6.13;1.30;;;21.10;99.90;;;;;;5015427;28;19906;-76
2023/03/22 13:02:33;;;;;;;5.10;1.70;;;21.00;99.90;;;;;;5015720;28;20033;-76
2023/03/22 13:05:03;;;;;;;4.78;1.50;;;20.80;99.90;;;;;;5014710;28;20026;-76
2023/03/22 13:07:36;;;;;;;5.07;1.45;;;20.70;99.90;;;;;;5016411;28;20038;-76
2023/03/22 13:10:35;;;;;;;2.80;1.50;;;20.40;99.90;;;;;;5043945;28;20041;-76
2023/03/22 13:13:24;;;;;;;4.97;1.50;;;20.20;99.90;;;;;;5055577;28;20033;-76